Time;durP1;ratioP1;P1;durP2;ratioP2;P2;SDS_P1;SDS_P2;PMS_P1;PMS_P2;Temp;Humidity;BMP_temperature;BMP_pressure;BME280_temperature;BME280_humidity;BME280_pressure;Samples;Min_cycle;Max_cycle;Signal;HPM_P1;HPM_P2
2023/09/11 00:00:01;;;;;;;2.80;1.70;;;;;;;20.14;67.35;99401.06;338604;28;5150;-66
2023/09/11 00:00:13;;;;;;;2.70;1.60;;;;;;;20.15;67.20;99400.09;335935;28;17877;-66
2023/09/11 00:00:26;;;;;;;2.78;1.55;;;;;;;20.17;67.14;99397.38;338700;28;4573;-67
2023/09/11 00:00:37;;;;;;;2.30;1.60;;;;;;;20.16;67.22;99404.41;336008;28;18269;-66
2023/09/11 00:00:49;;;;;;;2.13;1.67;;;;;;;20.17;67.17;99394.72;337230;28;5832;-66
2023/09/11 00:01:02;;;;;;;4.47;1.70;;;;;;;20.16;67.14;99391.22;335012;28;16537;-68
2023/09/11 00:01:15;;;;;;;5.18;1.80;;;;;;;20.17;67.49;99398.19;337805;28;5121;-66
2023/09/11 00:01:27;;;;;;;4.78;1.80;;;;;;;20.15;67.70;99406.22;334478;28;18025;-67
2023/09/11 00:01:39;;;;;;;2.88;1.90;;;;;;;20.17;67.56;99398.19;337800;28;4662;-66
2023/09/11 00:01:51;;;;;;;2.45;1.67;;;;;;;20.16;67.67;99396.50;337062;28;11812;-67
2023/09/11 00:02:05;;;;;;;2.10;1.48;;;;;;;20.15;67.86;99397.47;336638;28;17398;-67
2023/09/11 00:02:17;;;;;;;3.40;1.60;;;;;;;20.17;67.82;99392.91;334557;28;18749;-66
2023/09/11 00:02:30;;;;;;;3.75;1.95;;;;;;;20.15;67.90;99400.09;339085;28;5216;-66
2023/09/11 00:02:42;;;;;;;2.60;1.77;;;;;;;20.14;68.10;99403.69;336329;28;18240;-68
2023/09/11 00:02:54;;;;;;;3.08;1.90;;;;;;;20.15;67.89;99402.75;338810;28;5422;-67
2023/09/11 00:03:06;;;;;;;2.22;1.67;;;;;;;20.14;67.93;99394.00;336612;28;12187;-66
2023/09/11 00:03:18;;;;;;;2.47;1.60;;;;;;;20.15;67.77;99394.84;339216;28;4679;-65
2023/09/11 00:03:31;;;;;;;2.33;1.55;;;;;;;20.15;67.84;99394.84;334732;28;5467;-66
2023/09/11 00:03:43;;;;;;;2.70;1.55;;;;;;;20.15;67.85;99394.84;336325;28;19289;-66
2023/09/11 00:03:56;;;;;;;9.43;1.95;;;;;;;20.15;67.89;99402.75;339305;28;5761;-66
2023/09/11 00:04:08;;;;;;;9.60;2.15;;;;;;;20.18;67.90;99405.13;336472;28;10757;-67
2023/09/11 00:04:23;;;;;;;3.22;2.03;;;;;;;20.18;67.59;99397.22;336157;28;18918;-66
2023/09/11 00:04:35;;;;;;;2.55;1.92;;;;;;;20.19;67.69;99396.28;338908;28;5008;-66
2023/09/11 00:04:47;;;;;;;1.83;1.67;;;;;;;20.20;67.65;99397.94;338870;28;4692;-66
2023/09/11 00:04:59;;;;;;;1.67;1.55;;;;;;;20.22;67.53;99395.19;336063;28;18621;-67
2023/09/11 00:05:11;;;;;;;1.88;1.58;;;;;;;20.23;67.37;99392.44;337002;28;5541;-66
2023/09/11 00:05:23;;;;;;;2.65;1.80;;;;;;;20.24;67.41;99399.41;335220;28;18300;-66
2023/09/11 00:05:35;;;;;;;2.85;1.83;;;;;;;20.23;67.45;99397.72;336504;28;5132;-66
2023/09/11 00:05:48;;;;;;;2.67;1.73;;;;;;;20.23;67.60;99391.63;334151;28;5048;-67
2023/09/11 00:06:16;;;;;;;2.78;1.60;;;;;;;20.23;67.59;99396.88;333643;28;17412;-66
2023/09/11 00:06:28;;;;;;;2.72;1.63;;;;;;;20.25;67.34;99393.16;331039;28;12349;-66
2023/09/11 00:06:40;;;;;;;2.78;1.73;;;;;;;20.26;67.31;99392.22;334327;28;17451;-66
2023/09/11 00:06:52;;;;;;;4.70;2.05;;;;;;;20.28;67.21;99400.88;338443;28;5165;-66
2023/09/11 00:07:04;;;;;;;4.82;2.20;;;;;;;20.27;67.37;99401.81;335046;28;18324;-67
2023/09/11 00:07:16;;;;;;;4.68;2.20;;;;;;;20.28;67.39;99398.22;337742;28;5106;-67
2023/09/11 00:07:28;;;;;;;3.13;1.83;;;;;;;20.28;67.03;99398.22;337914;28;4681;-66
2023/09/11 00:07:40;;;;;;;2.90;1.70;;;;;;;20.28;67.64;99395.59;336069;28;18072;-67
2023/09/11 00:07:52;;;;;;;2.20;1.80;;;;;;;20.29;67.45;99397.25;334629;28;4630;-66
2023/09/11 00:08:04;;;;;;;3.53;1.90;;;;;;;20.30;67.38;99398.94;336537;28;17772;-68
2023/09/11 00:08:16;;;;;;;4.57;2.00;;;;;;;20.30;67.43;99393.66;338988;28;4546;-67
2023/09/11 00:08:28;;;;;;;3.75;1.65;;;;;;;20.29;67.47;99394.63;336282;28;11726;-68
2023/09/11 00:08:40;;;;;;;3.72;1.70;;;;;;;20.28;67.28;99395.59;338926;28;5530;-65
2023/09/11 00:08:52;;;;;;;3.67;1.73;;;;;;;20.30;67.31;99396.31;338917;28;5601;-66
2023/09/11 00:09:04;;;;;;;3.80;1.95;;;;;;;20.32;67.01;99396.16;336292;28;18976;-66
2023/09/11 00:09:16;;;;;;;3.20;1.88;;;;;;;20.31;66.93;99395.34;338706;28;5127;-66
2023/09/11 00:09:28;;;;;;;2.38;1.65;;;;;;;20.28;66.60;99398.22;338842;28;5419;-66
2023/09/11 00:09:40;;;;;;;2.67;1.80;;;;;;;20.29;66.62;99397.25;336468;28;18079;-66
2023/09/11 00:09:52;;;;;;;2.83;2.00;;;;;;;20.31;66.61;99389.22;339049;28;4535;-66
2023/09/11 00:10:05;;;;;;;2.42;1.83;;;;;;;20.30;66.59;99393.66;336332;28;17684;-66
2023/09/11 00:10:17;;;;;;;3.08;1.75;;;;;;;20.31;66.40;99392.69;339269;28;5412;-66
2023/09/11 00:10:32;;;;;;;2.95;1.67;;;;;;;20.31;66.48;99394.50;339180;28;4921;-66
2023/09/11 00:10:44;;;;;;;2.17;1.60;;;;;;;20.30;66.54;99391.03;338506;28;18290;-66
2023/09/11 00:10:57;;;;;;;3.05;1.70;;;;;;;20.31;66.59;99389.22;336837;28;18169;-66
2023/09/11 00:11:09;;;;;;;3.45;1.92;;;;;;;20.31;66.25;99390.06;339084;28;6467;-66
2023/09/11 00:11:22;;;;;;;3.13;2.03;;;;;;;20.31;66.46;99390.06;332172;28;18025;-66
2023/09/11 00:11:34;;;;;;;3.03;2.00;;;;;;;20.30;66.31;99393.66;336940;28;4525;-67
2023/09/11 00:11:46;;;;;;;2.90;1.90;;;;;;;20.30;66.41;99388.38;339085;28;4675;-67
2023/09/11 00:11:58;;;;;;;3.28;1.73;;;;;;;20.30;66.57;99388.38;339201;28;4658;-66
2023/09/11 00:12:10;;;;;;;3.22;1.70;;;;;;;20.31;66.47;99387.41;336483;28;12108;-68
2023/09/11 00:12:22;;;;;;;2.67;1.70;;;;;;;20.32;66.47;99390.88;339181;28;4961;-66
2023/09/11 00:12:34;;;;;;;2.75;1.70;;;;;;;20.30;66.25;99387.53;339200;28;4601;-66
2023/09/11 00:12:46;;;;;;;4.00;1.80;;;;;;;20.24;66.37;99388.88;336187;28;17680;-67
2023/09/11 00:12:59;;;;;;;4.35;1.98;;;;;;;20.24;66.53;99388.88;339286;28;4782;-67
2023/09/11 00:13:11;;;;;;;2.15;1.63;;;;;;;20.22;66.28;99382.88;336876;28;4560;-66
2023/09/11 00:13:23;;;;;;;1.83;1.42;;;;;;;20.21;66.45;99389.09;339228;28;4705;-66
2023/09/11 00:13:35;;;;;;;2.22;1.63;;;;;;;20.23;66.17;99387.16;338846;28;11860;-66
2023/09/11 00:13:47;;;;;;;3.20;1.90;;;;;;;20.23;66.10;99391.63;336506;28;18234;-66
2023/09/11 00:13:59;;;;;;;3.38;1.98;;;;;;;20.25;66.38;99390.53;339172;28;4896;-66
2023/09/11 00:14:11;;;;;;;3.00;1.80;;;;;;;20.24;66.43;99377.44;337026;28;4674;-66
2023/09/11 00:14:23;;;;;;;2.72;1.83;;;;;;;20.24;66.19;99388.88;339064;28;4535;-66
2023/09/11 00:14:35;;;;;;;2.50;1.80;;;;;;;20.24;66.23;99388.88;337206;28;5018;-68
2023/09/11 00:14:47;;;;;;;2.45;1.65;;;;;;;20.26;66.20;99386.09;339246;28;5390;-66
2023/09/11 00:14:59;;;;;;;1.92;1.52;;;;;;;20.23;66.18;99384.53;339139;28;4515;-66
2023/09/11 00:15:11;;;;;;;2.00;1.55;;;;;;;20.25;66.33;99390.53;337363;28;5201;-67
2023/09/11 00:15:23;;;;;;;2.05;1.67;;;;;;;20.27;66.29;99385.97;337205;28;17567;-66
2023/09/11 00:15:35;;;;;;;1.98;1.70;;;;;;;20.28;66.34;99385.03;339127;28;5261;-66
2023/09/11 00:15:47;;;;;;;1.83;1.50;;;;;;;20.30;66.17;99383.09;336514;28;17861;-67
2023/09/11 00:15:59;;;;;;;1.98;1.60;;;;;;;20.31;66.03;99390.06;339344;28;5588;-67
2023/09/11 00:16:11;;;;;;;2.88;1.70;;;;;;;20.31;66.22;99384.78;336727;28;11326;-68
2023/09/11 00:16:23;;;;;;;2.60;1.65;;;;;;;20.32;66.09;99388.25;339309;28;5218;-66
2023/09/11 00:16:36;;;;;;;3.85;1.70;;;;;;;20.31;66.14;99381.31;339118;28;4514;-66
2023/09/11 00:16:48;;;;;;;3.95;1.80;;;;;;;20.29;66.14;99378.78;336536;28;18425;-66
2023/09/11 00:17:00;;;;;;;4.10;1.85;;;;;;;20.28;66.09;99382.38;339294;28;4775;-66
2023/09/11 00:17:12;;;;;;;2.20;1.75;;;;;;;20.28;66.18;99385.03;336767;28;18407;-68
2023/09/11 00:17:24;;;;;;;2.40;1.85;;;;;;;20.27;66.39;99391.25;339285;28;5217;-66
2023/09/11 00:17:36;;;;;;;1.85;1.60;;;;;;;20.27;66.47;99387.78;336958;28;11623;-68
2023/09/11 00:17:48;;;;;;;1.60;1.38;;;;;;;20.25;66.42;99379.97;338158;28;17313;-67
2023/09/11 00:18:00;;;;;;;1.90;1.50;;;;;;;20.25;66.53;99382.59;338846;28;5472;-67
2023/09/11 00:18:12;;;;;;;3.13;1.60;;;;;;;20.24;66.43;99383.59;330214;28;18231;-65
2023/09/11 00:18:25;;;;;;;3.17;1.65;;;;;;;20.23;66.36;99384.53;337417;28;5378;-67
2023/09/11 00:18:37;;;;;;;3.22;1.70;;;;;;;20.22;66.68;99385.50;339129;28;4619;-66
2023/09/11 00:18:50;;;;;;;4.15;1.90;;;;;;;20.18;66.56;99384.03;334980;28;17813;-67
2023/09/11 00:19:02;;;;;;;4.03;1.80;;;;;;;20.16;66.57;99383.31;335223;28;4536;-68
2023/09/11 00:19:14;;;;;;;4.32;1.90;;;;;;;20.15;66.74;99381.63;337510;28;5092;-66
2023/09/11 00:19:26;;;;;;;4.32;1.77;;;;;;;20.15;66.51;99376.34;337497;28;4485;-66
2023/09/11 00:19:38;;;;;;;4.28;1.88;;;;;;;20.15;66.46;99379.84;334719;28;16406;-67
2023/09/11 00:19:50;;;;;;;2.42;1.98;;;;;;;20.14;66.62;99377.31;338868;28;4683;-66
2023/09/11 00:20:09;;;;;;;1.95;1.75;;;;;;;20.13;66.74;99376.47;336396;28;11858;-68
2023/09/11 00:20:21;;;;;;;2.42;1.85;;;;;;;20.13;66.58;99383.56;336271;28;17981;-66
2023/09/11 00:20:33;;;;;;;2.97;2.08;;;;;;;20.10;67.33;99381.13;336325;28;18408;-67
2023/09/11 00:20:45;;;;;;;2.88;2.00;;;;;;;20.09;67.13;99376.84;339277;28;4526;-66
2023/09/11 00:20:57;;;;;;;3.20;2.08;;;;;;;20.07;66.90;99381.38;339058;28;5368;-66
2023/09/11 00:21:09;;;;;;;3.17;1.88;;;;;;;20.04;67.37;99387.75;331841;28;18129;-66
2023/09/11 00:21:24;;;;;;;2.47;1.65;;;;;;;20.06;67.22;99379.69;339250;28;4991;-66
2023/09/11 00:21:37;;;;;;;2.03;1.50;;;;;;;20.05;67.17;99378.84;336436;28;18474;-67
2023/09/11 00:21:49;;;;;;;2.28;1.50;;;;;;;20.05;67.02;99383.31;336296;28;18166;-67
2023/09/11 00:22:02;;;;;;;2.35;1.50;;;;;;;20.07;66.98;99381.38;339284;28;4452;-66
2023/09/11 00:22:14;;;;;;;2.63;1.63;;;;;;;20.07;67.02;99376.09;336669;28;4678;-68
2023/09/11 00:22:26;;;;;;;2.97;1.75;;;;;;;20.05;66.92;99378.84;339235;28;4858;-66
2023/09/11 00:22:38;;;;;;;4.28;1.85;;;;;;;20.05;67.00;99381.50;339046;28;5376;-65
2023/09/11 00:22:50;;;;;;;4.07;2.00;;;;;;;20.04;66.88;99376.31;337077;28;5466;-67
2023/09/11 00:23:02;;;;;;;3.28;1.85;;;;;;;20.05;66.85;99378.03;339348;28;5550;-66
2023/09/11 00:23:14;;;;;;;2.50;1.80;;;;;;;20.04;66.85;99376.31;336624;28;10323;-68
2023/09/11 00:23:27;;;;;;;2.65;1.90;;;;;;;20.03;66.76;99379.94;339369;28;5227;-67
2023/09/11 00:23:39;;;;;;;2.95;1.83;;;;;;;20.02;66.61;99373.84;339016;28;4713;-66
2023/09/11 00:23:51;;;;;;;2.83;1.70;;;;;;;20.02;66.74;99378.25;336645;28;18299;-66
2023/09/11 00:24:04;;;;;;;4.00;1.80;;;;;;;20.01;66.66;99377.41;333193;28;4746;-66
2023/09/11 00:24:16;;;;;;;3.50;1.77;;;;;;;20.00;66.70;99380.16;335238;28;18027;-66
2023/09/11 00:24:27;;;;;;;5.28;1.85;;;;;;;19.98;66.90;99375.03;338079;28;4854;-66
2023/09/11 00:24:39;;;;;;;4.50;1.60;;;;;;;19.95;66.71;99373.44;335683;28;11873;-67
2023/09/11 00:24:51;;;;;;;4.40;1.60;;;;;;;19.94;66.93;99371.78;339205;28;5195;-66
2023/09/11 00:25:04;;;;;;;2.05;1.50;;;;;;;19.91;66.97;99382.53;339214;28;4477;-66
2023/09/11 00:25:16;;;;;;;2.08;1.55;;;;;;;19.91;66.76;99374.63;336596;28;17816;-65
2023/09/11 00:25:28;;;;;;;2.30;1.58;;;;;;;19.90;66.79;99377.38;339370;28;4657;-66
2023/09/11 00:25:40;;;;;;;5.15;1.58;;;;;;;19.89;66.85;99373.06;332040;28;12259;-68
2023/09/11 00:25:52;;;;;;;4.90;1.73;;;;;;;19.87;67.19;99375.81;339159;28;5876;-67
2023/09/11 00:26:04;;;;;;;5.15;1.80;;;;;;;19.85;67.29;99372.47;339141;28;4671;-66
2023/09/11 00:26:16;;;;;;;3.17;1.73;;;;;;;19.86;67.26;99371.50;336431;28;18269;-66
2023/09/11 00:26:28;;;;;;;5.18;1.80;;;;;;;19.85;67.41;99380.38;339218;28;4534;-67
2023/09/11 00:26:40;;;;;;;4.18;1.75;;;;;;;19.85;67.43;99379.53;336383;28;12118;-68
2023/09/11 00:26:52;;;;;;;4.28;1.88;;;;;;;19.85;67.45;99377.72;339199;28;4509;-66
2023/09/11 00:27:04;;;;;;;3.13;1.90;;;;;;;19.85;67.37;99371.63;334182;28;4487;-67
2023/09/11 00:27:16;;;;;;;2.42;1.65;;;;;;;19.84;67.59;99376.06;336198;28;18778;-67
2023/09/11 00:27:29;;;;;;;2.65;1.67;;;;;;;19.83;67.54;99373.53;339290;28;5541;-66
2023/09/11 00:27:41;;;;;;;3.13;1.55;;;;;;;19.84;67.31;99370.78;336232;28;18273;-68
2023/09/11 00:27:53;;;;;;;2.70;1.50;;;;;;;19.84;67.30;99376.06;339225;28;4622;-66
2023/09/11 00:28:05;;;;;;;2.00;1.63;;;;;;;19.84;67.45;99376.06;339081;28;5421;-66
2023/09/11 00:28:17;;;;;;;1.83;1.58;;;;;;;19.85;67.38;99377.72;336438;28;17844;-67
2023/09/11 00:28:29;;;;;;;2.20;1.50;;;;;;;19.85;67.36;99377.72;339221;28;4677;-66
2023/09/11 00:28:41;;;;;;;2.30;1.65;;;;;;;19.84;67.28;99369.94;334399;28;16570;-66
2023/09/11 00:28:54;;;;;;;1.92;1.60;;;;;;;19.83;67.50;99377.00;339169;28;4646;-66
2023/09/11 00:29:06;;;;;;;2.13;1.45;;;;;;;19.83;67.48;99374.38;339137;28;5170;-66
2023/09/11 00:29:18;;;;;;;2.13;1.50;;;;;;;19.82;67.81;99367.44;336396;28;18399;-66
2023/09/11 00:29:30;;;;;;;1.67;1.42;;;;;;;19.81;68.17;99373.66;339236;28;5049;-66
2023/09/11 00:29:42;;;;;;;2.05;1.63;;;;;;;19.82;67.98;99369.19;336826;28;5195;-67
2023/09/11 00:29:54;;;;;;;2.35;1.70;;;;;;;19.81;68.12;99376.28;338996;28;4583;-67
2023/09/11 00:30:06;;;;;;;2.20;1.60;;;;;;;19.81;67.87;99376.28;336524;28;12029;-68
2023/09/11 00:30:18;;;;;;;2.25;1.70;;;;;;;19.80;67.80;99369.34;339252;28;5560;-66
2023/09/11 00:30:30;;;;;;;2.55;2.00;;;;;;;19.81;67.70;99371.00;339206;28;4644;-66
2023/09/11 00:30:43;;;;;;;3.17;1.95;;;;;;;19.82;67.89;99370.06;336466;28;18257;-66
2023/09/11 00:31:03;;;;;;;3.47;1.63;;;;;;;19.83;67.93;99370.91;339295;28;4545;-66
2023/09/11 00:31:16;;;;;;;3.17;1.58;;;;;;;19.83;67.58;99374.38;336806;28;17576;-66
2023/09/11 00:31:28;;;;;;;2.90;1.67;;;;;;;19.84;67.39;99369.94;338382;28;16982;-66
2023/09/11 00:31:40;;;;;;;2.38;1.70;;;;;;;19.85;67.42;99377.72;336781;28;19380;-66
2023/09/11 00:31:52;;;;;;;1.85;1.63;;;;;;;19.85;67.36;99369.81;338838;28;4650;-66
2023/09/11 00:32:04;;;;;;;2.17;1.60;;;;;;;19.84;67.63;99365.50;336454;28;18160;-66
2023/09/11 00:32:16;;;;;;;7.53;1.88;;;;;;;19.83;67.79;99371.72;338941;28;4658;-66
2023/09/11 00:32:28;;;;;;;7.65;2.00;;;;;;;19.84;67.67;99370.78;336566;28;5356;-67
2023/09/11 00:32:40;;;;;;;3.38;1.83;;;;;;;19.86;67.71;99368.88;338724;28;4497;-66
2023/09/11 00:32:52;;;;;;;3.03;1.70;;;;;;;19.88;67.59;99363.47;336510;28;11688;-67
2023/09/11 00:33:04;;;;;;;3.13;1.75;;;;;;;19.88;67.38;99366.97;338702;28;5266;-66
2023/09/11 00:33:16;;;;;;;2.10;1.63;;;;;;;19.87;67.47;99365.28;339178;28;5842;-66
2023/09/11 00:33:29;;;;;;;1.75;1.65;;;;;;;19.88;67.31;99371.38;336447;28;18394;-67
2023/09/11 00:33:41;;;;;;;2.08;1.70;;;;;;;19.89;67.45;99366.00;339157;28;5268;-66
2023/09/11 00:33:53;;;;;;;2.58;1.70;;;;;;;19.90;67.51;99362.41;336302;28;19133;-68
2023/09/11 00:34:05;;;;;;;3.08;1.73;;;;;;;19.92;67.22;99365.78;339009;28;5174;-67
2023/09/11 00:34:17;;;;;;;3.05;1.80;;;;;;;19.92;67.47;99365.78;338687;28;4641;-66
2023/09/11 00:34:31;;;;;;;2.80;1.63;;;;;;;19.92;67.37;99365.78;331635;28;18501;-68
2023/09/11 00:34:43;;;;;;;4.18;1.67;;;;;;;19.93;67.50;99363.97;336396;28;12613;-66
2023/09/11 00:34:55;;;;;;;4.40;1.80;;;;;;;19.93;67.49;99367.44;338958;28;4938;-65
2023/09/11 00:35:07;;;;;;;2.45;1.90;;;;;;;19.93;67.35;99364.81;338872;28;4651;-66
2023/09/11 00:35:20;;;;;;;2.42;1.95;;;;;;;19.93;67.26;99367.44;336377;28;18098;-66
2023/09/11 00:35:32;;;;;;;2.67;1.92;;;;;;;19.95;67.15;99360.25;338820;28;4491;-66
2023/09/11 00:35:45;;;;;;;2.78;1.80;;;;;;;19.97;67.25;99367.22;332337;28;18415;-67
2023/09/11 00:35:57;;;;;;;3.25;1.90;;;;;;;19.98;67.29;99361.84;337706;28;17336;-66
2023/09/11 00:36:09;;;;;;;3.00;1.60;;;;;;;19.98;67.42;99366.25;332295;28;19167;-67
2023/09/11 00:36:21;;;;;;;2.65;1.58;;;;;;;19.99;67.41;99360.03;339109;28;4725;-67
2023/09/11 00:36:33;;;;;;;3.33;1.85;;;;;;;20.01;67.18;99366.03;336632;28;11404;-68
2023/09/11 00:36:45;;;;;;;3.50;1.90;;;;;;;20.00;67.35;99362.56;339196;28;4642;-66
2023/09/11 00:36:57;;;;;;;3.45;1.95;;;;;;;20.02;67.19;99363.28;338311;28;4976;-66
2023/09/11 00:37:09;;;;;;;3.13;1.55;;;;;;;20.02;67.18;99357.13;335216;28;19076;-67
2023/09/11 00:37:21;;;;;;;3.65;1.50;;;;;;;20.03;66.99;99359.66;333772;28;4630;-66
2023/09/11 00:37:33;;;;;;;3.22;1.63;;;;;;;20.04;67.33;99357.84;337873;28;4539;-66
2023/09/11 00:37:45;;;;;;;2.85;1.73;;;;;;;20.03;67.20;99361.47;332933;28;19323;-67
2023/09/11 00:37:57;;;;;;;2.15;1.77;;;;;;;20.04;67.19;99363.13;339304;28;4459;-65
2023/09/11 00:38:10;;;;;;;2.05;1.73;;;;;;;20.02;67.13;99363.28;336280;28;18124;-66
2023/09/11 00:38:22;;;;;;;2.53;1.90;;;;;;;20.01;67.34;99360.75;339049;28;4548;-66
2023/09/11 00:38:34;;;;;;;2.55;1.75;;;;;;;20.02;67.07;99365.91;339192;28;5404;-66
2023/09/11 00:38:47;;;;;;;2.58;1.60;;;;;;;20.02;67.02;99362.41;331998;28;18048;-67
2023/09/11 00:38:59;;;;;;;2.55;1.60;;;;;;;20.01;67.10;99358.13;336318;28;16632;-66
2023/09/11 00:39:11;;;;;;;3.88;1.70;;;;;;;20.03;66.94;99364.13;338958;28;4603;-66
2023/09/11 00:39:24;;;;;;;4.05;1.73;;;;;;;20.02;67.18;99362.41;339163;28;4867;-66
2023/09/11 00:39:36;;;;;;;4.22;2.00;;;;;;;20.03;67.01;99357.03;336457;28;18281;-66
2023/09/11 00:39:48;;;;;;;4.20;2.03;;;;;;;20.03;67.17;99358.84;339059;28;4639;-66
2023/09/11 00:40:00;;;;;;;2.55;1.88;;;;;;;20.04;67.26;99360.50;338583;28;18187;-66
2023/09/11 00:40:12;;;;;;;1.92;1.65;;;;;;;20.03;67.38;99361.47;336392;28;18113;-66
2023/09/11 00:40:24;;;;;;;1.90;1.70;;;;;;;20.03;67.17;99358.84;339053;28;5428;-66
2023/09/11 00:40:36;;;;;;;2.13;1.63;;;;;;;20.05;67.00;99359.56;336405;28;18122;-66
2023/09/11 00:40:48;;;;;;;2.47;1.67;;;;;;;20.04;67.13;99358.72;339033;28;5157;-66
2023/09/11 00:41:00;;;;;;;2.42;1.60;;;;;;;20.06;66.96;99358.59;339093;28;4715;-66
2023/09/11 00:41:11;;;;;;;2.38;1.60;;;;;;;20.05;67.04;99362.19;336529;28;18089;-67
2023/09/11 00:41:24;;;;;;;2.33;1.67;;;;;;;20.04;67.08;99355.22;339245;28;4746;-65
2023/09/11 00:41:36;;;;;;;2.30;1.52;;;;;;;20.05;67.05;99356.91;338741;28;19331;-66
2023/09/11 00:41:48;;;;;;;2.42;1.70;;;;;;;20.05;67.24;99356.91;336248;28;17192;-66
2023/09/11 00:42:01;;;;;;;2.30;1.73;;;;;;;20.04;67.18;99360.50;336666;28;16295;-68
2023/09/11 00:42:13;;;;;;;2.38;1.67;;;;;;;20.05;66.77;99356.91;338876;28;4520;-66
2023/09/11 00:42:25;;;;;;;2.20;1.55;;;;;;;20.04;66.75;99358.72;339057;28;4567;-67
2023/09/11 00:42:37;;;;;;;1.88;1.40;;;;;;;20.05;66.77;99356.91;336389;28;18292;-66
2023/09/11 00:42:49;;;;;;;2.33;1.70;;;;;;;20.05;66.84;99356.91;338633;28;4532;-66
2023/09/11 00:43:01;;;;;;;2.85;1.80;;;;;;;20.05;66.71;99357.75;336474;28;17876;-67
2023/09/11 00:43:13;;;;;;;2.63;1.60;;;;;;;20.06;66.85;99354.16;334706;28;5355;-66
2023/09/11 00:43:25;;;;;;;2.65;1.70;;;;;;;20.08;67.14;99356.66;339207;28;4489;-67
2023/09/11 00:43:37;;;;;;;2.47;1.80;;;;;;;20.10;67.02;99360.03;333861;28;18225;-67
2023/09/11 00:43:49;;;;;;;2.05;1.60;;;;;;;20.07;66.97;99358.47;337949;28;4623;-66
2023/09/11 00:44:01;;;;;;;2.60;1.80;;;;;;;20.10;66.70;99354.75;335254;28;12374;-67
2023/09/11 00:44:13;;;;;;;2.95;1.77;;;;;;;20.09;66.72;99359.19;337803;28;4552;-67
2023/09/11 00:44:25;;;;;;;2.97;1.67;;;;;;;20.11;66.54;99356.44;337818;28;4658;-66
2023/09/11 00:44:37;;;;;;;3.72;1.83;;;;;;;20.11;66.62;99351.16;330388;28;17852;-67
2023/09/11 00:44:49;;;;;;;3.38;1.83;;;;;;;20.13;66.54;99355.34;337290;28;4959;-66
2023/09/11 00:45:02;;;;;;;3.00;1.70;;;;;;;20.14;66.56;99356.19;334918;28;12430;-66
2023/09/11 00:45:14;;;;;;;2.38;1.70;;;;;;;20.12;66.77;99358.09;337618;28;4702;-65
2023/09/11 00:45:26;;;;;;;4.63;1.92;;;;;;;20.12;66.59;99353.69;337481;28;4694;-66
2023/09/11 00:45:38;;;;;;;4.65;1.88;;;;;;;20.14;66.54;99356.19;334724;28;18195;-67
2023/09/11 00:45:51;;;;;;;4.82;2.08;;;;;;;20.14;66.50;99356.19;337563;28;5210;-66
2023/09/11 00:46:03;;;;;;;2.63;1.73;;;;;;;20.14;66.34;99358.84;334800;28;16027;-68
2023/09/11 00:46:15;;;;;;;2.45;1.65;;;;;;;20.15;66.43;99352.59;333092;28;5356;-66
2023/09/11 00:46:28;;;;;;;2.58;1.50;;;;;;;20.14;66.53;99345.63;335013;28;9839;-68
2023/09/11 00:46:40;;;;;;;2.10;1.55;;;;;;;20.12;66.38;99352.84;337772;28;5561;-67
2023/09/11 00:46:53;;;;;;;2.38;1.70;;;;;;;20.11;66.60;99356.44;336186;28;11968;-68
2023/09/11 00:47:05;;;;;;;2.97;1.70;;;;;;;20.12;66.55;99358.09;338992;28;5459;-67
2023/09/11 00:47:17;;;;;;;2.40;1.50;;;;;;;20.12;66.54;99358.09;336177;28;11983;-66
2023/09/11 00:47:30;;;;;;;1.38;1.27;;;;;;;20.09;66.61;99353.09;339233;28;5236;-67
2023/09/11 00:47:45;;;;;;;1.67;1.40;;;;;;;20.11;66.58;99351.16;339245;28;5283;-66
2023/09/11 00:47:59;;;;;;;2.33;1.65;;;;;;;20.09;66.72;99347.81;336248;28;17860;-67
2023/09/11 00:48:12;;;;;;;2.20;1.60;;;;;;;20.09;67.02;99358.38;336186;28;18038;-66
2023/09/11 00:48:24;;;;;;;3.65;1.73;;;;;;;20.07;66.55;99355.84;336196;28;18038;-67
2023/09/11 00:48:37;;;;;;;3.50;1.80;;;;;;;20.04;66.87;99356.09;338716;28;4602;-66
2023/09/11 00:48:55;;;;;;;1.67;1.52;;;;;;;20.04;66.64;99349.94;334691;28;17218;-66
2023/09/11 00:49:08;;;;;;;1.70;1.40;;;;;;;20.03;66.95;99353.56;329991;28;17794;-66
2023/09/11 00:49:20;;;;;;;2.10;1.60;;;;;;;20.03;66.98;99351.75;334955;28;18675;-66
2023/09/11 00:49:33;;;;;;;2.17;1.77;;;;;;;20.03;67.00;99349.13;337447;28;5559;-66
2023/09/11 00:49:45;;;;;;;2.03;1.67;;;;;;;20.03;66.86;99349.13;331254;28;18016;-67
2023/09/11 00:49:58;;;;;;;1.85;1.48;;;;;;;20.02;66.76;99349.22;338994;28;4507;-66
2023/09/11 00:50:11;;;;;;;2.13;1.58;;;;;;;20.04;66.94;99349.94;336065;28;17947;-67
2023/09/11 00:50:24;;;;;;;2.47;1.70;;;;;;;20.03;66.59;99354.38;339220;28;4658;-66
2023/09/11 00:50:36;;;;;;;2.40;1.63;;;;;;;20.03;66.56;99345.66;335275;28;18156;-66
2023/09/11 00:50:48;;;;;;;1.85;1.38;;;;;;;20.03;66.60;99343.00;338481;28;5150;-66
2023/09/11 00:51:01;;;;;;;1.88;1.42;;;;;;;20.04;66.64;99349.94;336422;28;18041;-67
2023/09/11 00:51:13;;;;;;;2.00;1.60;;;;;;;20.03;66.63;99353.56;339141;28;5007;-66
2023/09/11 00:51:25;;;;;;;2.17;1.75;;;;;;;20.01;66.47;99351.03;336374;28;18182;-68
2023/09/11 00:51:37;;;;;;;2.63;1.85;;;;;;;20.00;66.96;99349.38;339065;28;5085;-66
2023/09/11 00:51:50;;;;;;;2.55;1.77;;;;;;;20.01;67.09;99350.19;336418;28;11773;-66
2023/09/11 00:52:03;;;;;;;2.03;1.60;;;;;;;19.97;67.08;99348.75;339241;28;4655;-67
2023/09/11 00:52:15;;;;;;;2.00;1.63;;;;;;;19.98;66.73;99350.41;336283;28;18374;-68
2023/09/11 00:52:27;;;;;;;2.25;1.73;;;;;;;19.95;66.91;99347.06;338963;28;4618;-67
2023/09/11 00:52:40;;;;;;;2.42;1.85;;;;;;;19.95;66.64;99347.06;336472;28;12433;-67
2023/09/11 00:52:52;;;;;;;2.28;1.70;;;;;;;19.94;66.66;99350.66;339160;28;5614;-67
2023/09/11 00:53:06;;;;;;;2.00;1.67;;;;;;;19.94;66.57;99353.31;336176;28;16468;-68
2023/09/11 00:53:20;;;;;;;2.15;1.50;;;;;;;19.95;66.45;99344.41;338907;28;4665;-66
2023/09/11 00:53:32;;;;;;;2.15;1.50;;;;;;;19.95;66.35;99347.06;336549;28;18086;-66
2023/09/11 00:53:44;;;;;;;3.70;2.15;;;;;;;19.93;66.23;99348.97;334065;28;4850;-66
2023/09/11 00:53:56;;;;;;;7.03;2.50;;;;;;;19.92;65.83;99349.94;337002;28;4539;-66
2023/09/11 00:54:09;;;;;;;7.65;2.58;;;;;;;19.89;65.91;99352.81;339258;28;4648;-66
2023/09/11 00:54:23;;;;;;;3.47;1.83;;;;;;;19.85;65.92;99346.06;336156;28;19361;-67
2023/09/11 00:54:34;;;;;;;2.58;1.83;;;;;;;19.83;65.98;99350.63;339090;28;4734;-66
2023/09/11 00:54:47;;;;;;;2.35;1.60;;;;;;;19.84;66.17;99343.56;336266;28;18246;-66
2023/09/11 00:54:59;;;;;;;2.08;1.55;;;;;;;19.83;66.04;99348.00;338567;28;4508;-66
2023/09/11 00:55:12;;;;;;;3.17;1.77;;;;;;;19.83;66.01;99352.44;336179;28;18272;-66
2023/09/11 00:55:26;;;;;;;3.72;1.98;;;;;;;19.83;65.96;99345.34;339108;28;4636;-66
2023/09/11 00:55:39;;;;;;;3.33;1.95;;;;;;;19.83;66.19;99348.00;336265;28;17795;-66
2023/09/11 00:55:52;;;;;;;2.10;1.75;;;;;;;19.84;65.75;99344.41;336572;28;18291;-67
2023/09/11 00:56:04;;;;;;;2.22;1.70;;;;;;;19.84;66.11;99349.69;338769;28;4541;-66
2023/09/11 00:56:16;;;;;;;2.78;1.95;;;;;;;19.86;66.33;99346.91;338706;28;5691;-66
2023/09/11 00:56:29;;;;;;;4.20;2.03;;;;;;;19.86;66.15;99347.78;335011;28;18292;-66
2023/09/11 00:56:41;;;;;;;4.68;1.95;;;;;;;19.87;66.24;99352.06;337089;28;5429;-66
2023/09/11 00:56:53;;;;;;;3.05;1.80;;;;;;;19.87;66.12;99354.72;329757;28;18333;-67
2023/09/11 00:57:06;;;;;;;1.90;1.48;;;;;;;19.86;66.16;99342.50;337517;28;5737;-66
2023/09/11 00:57:20;;;;;;;1.80;1.40;;;;;;;19.85;66.15;99354.00;334350;28;18067;-67
2023/09/11 00:57:32;;;;;;;1.88;1.40;;;;;;;19.84;66.18;99347.06;337221;28;12496;-67
2023/09/11 00:57:44;;;;;;;2.17;1.60;;;;;;;19.85;66.29;99346.06;335391;28;17438;-66
2023/09/11 00:57:56;;;;;;;2.10;1.60;;;;;;;19.87;66.40;99346.81;337577;28;5146;-66
2023/09/11 00:58:08;;;;;;;2.03;1.48;;;;;;;19.87;66.37;99344.16;335539;28;18130;-68
2023/09/11 00:58:21;;;;;;;2.47;1.40;;;;;;;19.88;66.63;99350.28;338636;28;5363;-65
2023/09/11 00:58:33;;;;;;;2.55;1.60;;;;;;;19.86;67.04;99347.78;333820;28;5213;-67
2023/09/11 00:58:46;;;;;;;2.53;1.73;;;;;;;19.85;67.01;99351.34;338968;28;4801;-67
2023/09/11 00:58:58;;;;;;;3.25;1.75;;;;;;;19.86;66.82;99353.06;338000;28;5417;-68
2023/09/11 00:59:11;;;;;;;4.47;1.67;;;;;;;19.87;66.75;99349.44;336531;28;18314;-66
2023/09/11 00:59:23;;;;;;;4.00;1.70;;;;;;;19.86;67.01;99350.41;338646;28;4659;-66